»·PEaware :: UAL935 KCOS-KDEN

UAL935 :: KCOS-KDEN

FLIGHT INFORMATION

Flight Status: Arrived
Operator:
United Airlines
More flights by this operator :: More flights under this callsign
Pilot: Michael S. (20314)
Aircraft: AIRBUS A321
(A321)
More flights by this aircraft type
Origin: KCOS City Of Colorado Springs Mun
United States
Destination: KDEN Denver Intl
United States
More flights between these airports :: More routes between these airports
Route: ADANE V389 LUFSE JEFEL
File this flight plan on PilotEdge
Remarks: RMK / SIMBRIEF
Altitude:
(Current/Filed)
12,000ft
Speed:
(Current/Filed)
368kts
Departed: 06-Oct-21 11:29 AM
Arrived: 06-Oct-21 12:01 PM
Distance/Time
Traveled:
64nm/0:32
Distance/Time
To Go:
Arrived

Flight Plot

Page will automatically refresh every two minutes.

Flight plan parsing failed; only flown route is shown


Map Options




Map Legend


Flown Route
Filed Route
Departure Airport
Arrival Airport
Navaid (VOR, NDB)
Fix

Horizontal Profiles

Position Reports

Time Latitude Longitude Heading Altitude Ground
Speed
06-Oct-21 11:02 38.797936 -104.701548 100 6196ft 0kts
06-Oct-21 11:03 38.797936 -104.701548 100 6196ft 0kts
06-Oct-21 11:04 38.797936 -104.701548 100 6196ft 0kts
06-Oct-21 11:05 38.797936 -104.701548 100 6196ft 0kts
06-Oct-21 11:06 38.797936 -104.701548 100 6196ft 0kts
06-Oct-21 11:07 38.797936 -104.701548 100 6196ft 0kts
06-Oct-21 11:08 38.797936 -104.701548 100 6196ft 0kts
06-Oct-21 11:09 38.797936 -104.701548 100 6196ft 0kts
06-Oct-21 11:10 38.797936 -104.701548 100 6196ft 0kts
06-Oct-21 11:11 38.797936 -104.701548 100 6196ft 0kts
06-Oct-21 11:12 38.797936 -104.701548 100 6196ft 0kts
06-Oct-21 11:13 38.797969 -104.701756 93 6196ft 2kts
06-Oct-21 11:14 38.798244 -104.702405 124 6196ft 2kts
06-Oct-21 11:15 38.798479 -104.702854 89 6196ft 0kts
06-Oct-21 11:16 38.798344 -104.702951 358 6196ft 0kts
06-Oct-21 11:17 38.798344 -104.702951 358 6196ft 0kts
06-Oct-21 11:18 38.798355 -104.702951 358 6196ft 0kts
06-Oct-21 11:19 38.800193 -104.702053 68 6196ft 10kts
06-Oct-21 11:20 38.802903 -104.700869 33 6196ft 12kts
06-Oct-21 11:21 38.803097 -104.696072 90 6196ft 14kts
06-Oct-21 11:22 38.803115 -104.690682 90 6196ft 15kts
06-Oct-21 11:23 38.804164 -104.687653 0 6196ft 11kts
06-Oct-21 11:24 38.808575 -104.687641 359 6196ft 17kts
06-Oct-21 11:25 38.813261 -104.687636 0 6196ft 16kts
06-Oct-21 11:26 38.815936 -104.687076 86 6196ft 0kts
06-Oct-21 11:27 38.815950 -104.686510 88 6196ft 7kts
06-Oct-21 11:28 38.797102 -104.685706 178 6284ft 183kts
06-Oct-21 11:29 38.746979 -104.685773 180 8874ft 197kts
06-Oct-21 11:30 38.685012 -104.685688 184 10064ft 245kts
06-Oct-21 11:31 38.613579 -104.686736 142 11280ft 284kts
06-Oct-21 11:32 38.590673 -104.580726 97 11998ft 364kts
06-Oct-21 11:33 38.593932 -104.450793 57 11986ft 379kts
06-Oct-21 11:34 38.688960 -104.410556 359 11999ft 379kts
06-Oct-21 11:35 38.794629 -104.406418 1 11995ft 380kts
06-Oct-21 11:36 38.900190 -104.400332 1 12032ft 381kts
06-Oct-21 11:37 39.005873 -104.395044 0 12047ft 381kts
06-Oct-21 11:38 39.111126 -104.397136 337 12032ft 377kts
06-Oct-21 11:39 39.201866 -104.463235 326 12049ft 375kts
06-Oct-21 11:40 39.291383 -104.532148 327 12038ft 375kts
06-Oct-21 11:41 39.380986 -104.601099 327 12002ft 375kts
06-Oct-21 11:42 39.470359 -104.669831 327 11964ft 375kts
06-Oct-21 11:43 39.560098 -104.738858 327 11958ft 375kts
06-Oct-21 11:44 39.640278 -104.800242 327 11956ft 313kts
06-Oct-21 11:45 39.721278 -104.829224 357 11948ft 290kts
06-Oct-21 11:46 39.795749 -104.830898 357 11640ft 266kts
06-Oct-21 11:47 39.868562 -104.833030 357 10947ft 255kts
06-Oct-21 11:48 39.936923 -104.835109 357 10921ft 227kts
06-Oct-21 11:49 40.000772 -104.837047 357 10156ft 234kts
06-Oct-21 11:50 40.066882 -104.839735 357 8716ft 244kts
06-Oct-21 11:51 40.132611 -104.840243 21 7883ft 215kts
06-Oct-21 11:52 40.151399 -104.772734 87 7929ft 209kts
06-Oct-21 11:53 40.147681 -104.699881 138 7920ft 200kts
06-Oct-21 11:54 40.100405 -104.693379 181 7932ft 155kts
06-Oct-21 11:55 40.058581 -104.694149 180 7938ft 149kts
06-Oct-21 11:56 40.016752 -104.694656 180 7821ft 152kts
06-Oct-21 11:57 39.975248 -104.695137 180 7027ft 148kts
06-Oct-21 11:58 39.934353 -104.695620 181 6242ft 146kts
06-Oct-21 11:59 39.894102 -104.696140 181 5492ft 140kts
06-Oct-21 12:00 39.874523 -104.696368 180 5443ft 36kts
06-Oct-21 12:01 39.870327 -104.696407 181 5443ft 29kts

Navigation Log

Ident Type
Flight plan parsing failed, navigation log unavailable